Stations météo

réclame
Mon MeteoGroup
Bristol International Airport, Grande-Bretagne (3726): Température de l'air & dewpoint: 13.07.2018 18:00:00 - 19.07.2018 18:00:00 (BST)Bristol International Airport, Grande-Bretagne (3726): Vitesse du vent: 13.07.2018 18:00:00 - 19.07.2018 18:00:00 (BST)Bristol International Airport, Grande-Bretagne (3726): Direction du vent: 13.07.2018 18:00:00 - 19.07.2018 18:00:00 (BST)Bristol International Airport, Grande-Bretagne (3726): visibility: 13.07.2018 18:00:00 - 19.07.2018 18:00:00 (BST)
Date & Time tt [°C] td [°C] ff [km/h] ff [knt] dd vv [km]
19.07.2018 18:00:00 22,0 12,0 16 9 WNW 10
19.07.2018 17:00:00 23,0 11,0 13 7 NW 10
19.07.2018 16:00:00 23,0 10,0 13 7 - 10
19.07.2018 15:00:00 23,0 12,0 16 9 WNW 10
19.07.2018 14:00:00 23,0 12,0 8 4 NW 10
19.07.2018 13:00:00 22,0 12,0 5 3 - 10
19.07.2018 12:00:00 21,0 13,0 5 3 - 10
19.07.2018 11:00:00 20,0 14,0 5 3 - 10
19.07.2018 10:00:00 19,0 13,0 4 2 - 10
19.07.2018 09:00:00 17,0 13,0 4 2 - 10
19.07.2018 08:00:00 17,0 13,0 5 3 - 10
19.07.2018 07:00:00 15,0 14,0 8 4 NW 10
19.07.2018 06:00:00 14,0 12,0 5 3 W 10
19.07.2018 05:00:00 14,0 12,0 5 3 W 10
19.07.2018 04:00:00 14,0 12,0 5 3 WNW 10
19.07.2018 03:00:00 15,0 12,0 4 2 WNW 10
19.07.2018 02:00:00 15,0 12,0 5 3 WSW 10
19.07.2018 01:00:00 14,0 12,0 9 5 W 10
19.07.2018 00:00:00 14,0 12,0 15 8 W 10
18.07.2018 23:00:00 15,0 12,0 11 6 W 10
18.07.2018 22:00:00 16,0 12,0 11 6 WSW 10
18.07.2018 21:00:00 18,0 13,0 11 6 WSW 10
18.07.2018 20:00:00 19,0 13,0 15 8 WSW 10
18.07.2018 19:00:00 20,0 13,0 13 7 WSW 10
18.07.2018 18:00:00 21,0 13,0 15 8 WSW 10
18.07.2018 17:00:00 21,0 14,0 11 6 W 10
18.07.2018 16:00:00 20,0 14,0 16 9 W 10
18.07.2018 15:00:00 21,0 13,0 11 6 S 10
18.07.2018 14:00:00 21,0 13,0 13 7 SW 10
18.07.2018 13:00:00 20,0 13,0 16 9 WSW 10
18.07.2018 12:00:00 21,0 12,0 13 7 WSW 10
18.07.2018 11:00:00 20,0 13,0 13 7 SW 10
18.07.2018 10:00:00 19,0 13,0 18 10 SW 10
18.07.2018 09:00:00 18,0 13,0 15 8 SSW 10
18.07.2018 08:00:00 17,0 13,0 9 5 SSW 10
18.07.2018 07:00:00 16,0 13,0 9 5 S 10
18.07.2018 06:00:00 15,0 14,0 8 4 S 10
18.07.2018 05:00:00 15,0 13,0 4 2 S 10
18.07.2018 04:00:00 15,0 13,0 8 4 S 10
18.07.2018 03:00:00 15,0 13,0 5 3 SSE 10
18.07.2018 02:00:00 15,0 13,0 4 2 WSW 10
18.07.2018 01:00:00 15,0 13,0 8 4 WSW 10
18.07.2018 00:00:00 15,0 12,0 5 3 WSW 10
17.07.2018 23:00:00 16,0 12,0 5 3 SW 10
17.07.2018 22:00:00 16,0 12,0 8 4 SW 10
17.07.2018 21:00:00 17,0 11,0 8 4 WSW 10
17.07.2018 20:00:00 18,0 12,0 9 5 SW 10
17.07.2018 19:00:00 19,0 12,0 16 9 W 10
17.07.2018 18:00:00 18,0 12,0 16 9 W 10
17.07.2018 17:00:00 19,0 12,0 22 12 W 10
17.07.2018 16:00:00 19,0 11,0 16 9 WSW 10
17.07.2018 15:00:00 20,0 11,0 16 9 WSW 10
17.07.2018 14:00:00 19,0 12,0 21 11 W 10
17.07.2018 13:00:00 19,0 13,0 22 12 WSW 10
17.07.2018 12:00:00 19,0 14,0 18 10 WSW 10
17.07.2018 11:00:00 18,0 13,0 18 10 WSW 10
17.07.2018 10:00:00 18,0 12,0 16 9 WSW 10
17.07.2018 09:00:00 17,0 13,0 15 8 SW 10
17.07.2018 08:00:00 14,0 13,0 9 5 SSW 10
17.07.2018 07:00:00 14,0 14,0 9 5 SW 10
17.07.2018 06:00:00 14,0 14,0 9 5 SW 10
17.07.2018 05:00:00 13,0 13,0 9 5 SW 10
17.07.2018 04:00:00 14,0 13,0 11 6 W 10
17.07.2018 03:00:00 13,0 13,0 13 7 W 10
17.07.2018 02:00:00 13,0 13,0 13 7 W 10
17.07.2018 01:00:00 13,0 13,0 13 7 W 10
17.07.2018 00:00:00 14,0 13,0 15 8 W 10
16.07.2018 23:00:00 14,0 13,0 18 10 W 10
16.07.2018 22:00:00 14,0 12,0 21 11 W 10
16.07.2018 21:00:00 15,0 13,0 22 12 W 10
16.07.2018 20:00:00 17,0 13,0 29 16 W 10
16.07.2018 19:00:00 18,0 12,0 29 16 W 10
16.07.2018 18:00:00 20,0 11,0 29 16 W 10
16.07.2018 17:00:00 19,0 17,0 24 13 W 10
16.07.2018 16:00:00 18,0 18,0 24 13 W 10
16.07.2018 15:00:00 23,0 13,0 11 6 SW 10
16.07.2018 14:00:00 24,0 12,0 15 8 SW 10
16.07.2018 13:00:00 23,0 12,0 13 7 S 10
16.07.2018 12:00:00 21,0 13,0 11 6 SSW 10
16.07.2018 11:00:00 21,0 13,0 9 5 SW 10
16.07.2018 10:00:00 20,0 14,0 8 4 SW 10
16.07.2018 09:00:00 20,0 16,0 5 3 - 10
16.07.2018 08:00:00 18,0 17,0 5 3 - 10
16.07.2018 07:00:00 17,0 17,0 5 3 WSW 10
16.07.2018 06:00:00 17,0 16,0 5 3 SW 10
16.07.2018 05:00:00 16,0 16,0 8 4 WSW 10
16.07.2018 04:00:00 16,0 16,0 11 6 W 10
16.07.2018 03:00:00 16,0 15,0 11 6 W 10
16.07.2018 02:00:00 16,0 15,0 8 4 WSW 10
16.07.2018 01:00:00 17,0 15,0 11 6 WSW 10
16.07.2018 00:00:00 17,0 13,0 11 6 WSW 10
15.07.2018 23:00:00 18,0 12,0 9 5 WSW 10
15.07.2018 22:00:00 18,0 12,0 13 7 WSW 10
15.07.2018 21:00:00 20,0 14,0 16 9 W 10
15.07.2018 20:00:00 21,0 13,0 18 10 W 10
15.07.2018 19:00:00 23,0 12,0 22 12 W 10
15.07.2018 18:00:00 24,0 12,0 21 11 WNW 10
15.07.2018 17:00:00 25,0 13,0 18 10 WNW 10
15.07.2018 16:00:00 25,0 12,0 13 7 W 10
15.07.2018 15:00:00 25,0 12,0 18 10 W 10
15.07.2018 14:00:00 24,0 12,0 16 9 W 10
15.07.2018 13:00:00 23,0 10,0 18 10 W 10
15.07.2018 12:00:00 22,0 14,0 13 7 W 10
15.07.2018 11:00:00 21,0 15,0 9 5 WNW 10
15.07.2018 10:00:00 20,0 15,0 8 4 WNW 10
15.07.2018 09:00:00 18,0 15,0 9 5 NW 10
15.07.2018 08:00:00 17,0 15,0 5 3 - 10
15.07.2018 07:00:00 15,0 15,0 9 5 WNW 10
15.07.2018 06:00:00 14,0 14,0 8 4 WNW 10
15.07.2018 05:00:00 14,0 14,0 9 5 W 10
15.07.2018 04:00:00 14,0 14,0 11 6 W 10
15.07.2018 03:00:00 15,0 15,0 15 8 W 10
15.07.2018 02:00:00 15,0 15,0 15 8 W 10
15.07.2018 01:00:00 15,0 15,0 13 7 W 10
15.07.2018 00:00:00 15,0 15,0 16 9 W 10
14.07.2018 23:00:00 16,0 14,0 15 8 W 10
14.07.2018 22:00:00 17,0 14,0 16 9 WSW 10
14.07.2018 21:00:00 18,0 15,0 16 9 WSW 10
14.07.2018 20:00:00 20,0 14,0 22 12 W 10
14.07.2018 19:00:00 22,0 12,0 22 12 W 10
14.07.2018 18:00:00 23,0 10,0 21 11 W 10
14.07.2018 17:00:00 23,0 11,0 16 9 SW 10
14.07.2018 16:00:00 24,0 11,0 16 9 W 10
14.07.2018 15:00:00 23,0 8,0 16 9 SW 10
14.07.2018 14:00:00 23,0 12,0 13 7 WSW 10
14.07.2018 13:00:00 21,0 14,0 13 7 WSW 10
14.07.2018 12:00:00 20,0 14,0 9 5 SSW 10
14.07.2018 11:00:00 20,0 15,0 9 5 WSW 10
14.07.2018 10:00:00 19,0 14,0 5 3 - 10
14.07.2018 09:00:00 18,0 15,0 9 5 WSW 10
14.07.2018 08:00:00 16,0 15,0 9 5 SW 10
14.07.2018 07:00:00 15,0 15,0 5 3 SW 10
14.07.2018 06:00:00 15,0 15,0 5 3 WSW 10
14.07.2018 05:00:00 15,0 14,0 5 3 SSW 10
14.07.2018 04:00:00 15,0 14,0 4 2 SSW 10
14.07.2018 03:00:00 15,0 14,0 9 5 SW 10
14.07.2018 02:00:00 15,0 14,0 8 4 SW 10
14.07.2018 01:00:00 15,0 15,0 8 4 SW 10
14.07.2018 00:00:00 16,0 15,0 8 4 SW 10
13.07.2018 23:00:00 16,0 15,0 9 5 SW 10
13.07.2018 22:00:00 16,0 16,0 13 7 WSW 10
13.07.2018 21:00:00 17,0 16,0 11 6 SW 10
13.07.2018 20:00:00 19,0 17,0 9 5 WSW 10
13.07.2018 19:00:00 20,0 18,0 8 4 - 10
13.07.2018 18:00:00 18,0 17,0 9 5 - 10

tt = Température de l'air
td = dewpoint
ff = Vitesse du vent
dd = Direction du vent
vv = visibility

stations d'obs. à proximité